createdAt,value
2023-04-18T00:00:59.156Z,629.00
2023-04-18T00:01:59.249Z,632.00
2023-04-18T00:03:00.900Z,634.00
2023-04-18T00:03:59.499Z,634.00
2023-04-18T00:04:59.394Z,635.00
2023-04-18T00:05:59.348Z,631.00
2023-04-18T00:06:59.299Z,631.00
2023-04-18T00:07:59.313Z,631.00
2023-04-18T00:08:59.374Z,627.00
2023-04-18T00:09:59.346Z,632.00
2023-04-18T00:10:59.358Z,628.00
2023-04-18T00:11:59.362Z,626.00
2023-04-18T00:12:59.378Z,629.00
2023-04-18T00:13:59.399Z,625.00
2023-04-18T00:14:59.401Z,625.00
2023-04-18T00:15:59.420Z,619.00
2023-04-18T00:16:59.477Z,627.00
2023-04-18T00:17:59.498Z,636.00
2023-04-18T00:18:59.461Z,621.00
2023-04-18T00:19:59.473Z,632.00
2023-04-18T00:20:59.486Z,640.00
2023-04-18T00:21:59.494Z,621.00
2023-04-18T00:22:59.504Z,618.00
2023-04-18T00:23:59.600Z,621.00
2023-04-18T00:24:59.726Z,630.00
2023-04-18T00:25:59.763Z,630.00
2023-04-18T00:26:59.831Z,637.00
2023-04-18T00:28:00.887Z,625.00
2023-04-18T00:29:00.002Z,614.00
2023-04-18T00:30:00.140Z,624.00
2023-04-18T00:31:00.170Z,625.00
2023-04-18T00:32:00.241Z,614.00
2023-04-18T00:33:00.419Z,615.00
2023-04-18T00:34:00.398Z,616.00
2023-04-18T00:35:00.903Z,615.00
2023-04-18T00:36:00.572Z,617.00
2023-04-18T00:37:00.639Z,615.00
2023-04-18T00:38:00.707Z,613.00
2023-04-18T00:39:00.808Z,616.00
2023-04-18T00:40:00.886Z,618.00
2023-04-18T00:41:00.957Z,618.00
2023-04-18T00:42:01.034Z,624.00
2023-04-18T00:43:01.119Z,619.00
2023-04-18T00:44:01.200Z,620.00
2023-04-18T00:45:01.285Z,628.00
2023-04-18T00:46:01.425Z,611.00
2023-04-18T00:47:01.440Z,615.00
2023-04-18T00:48:01.594Z,611.00
2023-04-18T00:49:01.908Z,621.00
2023-04-18T00:50:01.712Z,612.00
2023-04-18T00:51:01.756Z,615.00
2023-04-18T00:52:01.852Z,608.00
2023-04-18T00:53:01.918Z,615.00
2023-04-18T00:54:02.066Z,614.00
2023-04-18T00:55:02.093Z,609.00
2023-04-18T00:56:02.131Z,610.00
2023-04-18T00:57:02.280Z,604.00
2023-04-18T00:58:02.284Z,611.00
2023-04-18T00:59:02.338Z,612.00
2023-04-18T01:00:02.504Z,622.00
2023-04-18T01:01:02.472Z,613.00
2023-04-18T01:02:02.640Z,608.00
2023-04-18T01:03:02.920Z,605.00
2023-04-18T01:04:02.761Z,612.00
2023-04-18T01:05:02.744Z,605.00
2023-04-18T01:06:02.811Z,622.00
2023-04-18T01:07:02.873Z,610.00
2023-04-18T01:08:02.932Z,607.00
2023-04-18T01:09:03.087Z,601.00
2023-04-18T01:10:03.103Z,610.00
2023-04-18T01:11:03.184Z,603.00
2023-04-18T01:12:03.247Z,604.00
2023-04-18T01:13:03.321Z,604.00
2023-04-18T01:14:04.414Z,604.00
2023-04-18T01:15:03.493Z,602.00
2023-04-18T01:16:03.622Z,605.00
2023-04-18T01:17:03.628Z,607.00
2023-04-18T01:18:03.714Z,605.00
2023-04-18T01:19:03.769Z,599.00
2023-04-18T01:20:03.854Z,599.00
2023-04-18T01:21:03.918Z,610.00
2023-04-18T01:22:04.006Z,600.00
2023-04-18T01:23:04.080Z,610.00
2023-04-18T01:24:04.184Z,601.00
2023-04-18T01:25:04.245Z,600.00
2023-04-18T01:26:04.398Z,602.00
2023-04-18T01:27:05.399Z,604.00
2023-04-18T01:28:04.528Z,606.00
2023-04-18T01:29:04.589Z,615.00
2023-04-18T01:30:04.707Z,600.00
2023-04-18T01:31:04.802Z,608.00
2023-04-18T01:32:04.852Z,605.00
2023-04-18T01:33:04.935Z,600.00
2023-04-18T01:34:05.016Z,600.00
2023-04-18T01:35:05.415Z,602.00
2023-04-18T01:36:05.184Z,619.00
2023-04-18T01:37:05.258Z,599.00
2023-04-18T01:38:05.348Z,599.00
2023-04-18T01:39:05.466Z,601.00
2023-04-18T01:40:05.517Z,594.00
2023-04-18T01:41:05.587Z,597.00
2023-04-18T01:42:05.675Z,597.00
2023-04-18T01:43:05.753Z,598.00
2023-04-18T01:44:05.840Z,594.00
2023-04-18T01:45:05.929Z,591.00
2023-04-18T01:46:06.018Z,593.00
2023-04-18T01:47:06.090Z,590.00
2023-04-18T01:48:06.171Z,592.00
2023-04-18T01:49:06.247Z,587.00
2023-04-18T01:50:06.334Z,591.00
2023-04-18T01:51:06.420Z,596.00
2023-04-18T01:52:06.491Z,590.00
2023-04-18T01:53:06.577Z,586.00
2023-04-18T01:54:06.666Z,593.00
2023-04-18T01:55:06.932Z,589.00
2023-04-18T01:56:06.808Z,593.00
2023-04-18T01:57:06.929Z,594.00
2023-04-18T01:58:06.968Z,585.00
2023-04-18T01:59:07.045Z,594.00
2023-04-18T02:00:07.151Z,588.00
2023-04-18T02:01:07.257Z,587.00
2023-04-18T02:02:07.422Z,587.00
2023-04-18T02:03:07.556Z,586.00
2023-04-18T02:04:07.441Z,590.00
2023-04-18T02:05:07.507Z,583.00
2023-04-18T02:06:07.606Z,585.00
2023-04-18T02:07:08.412Z,584.00
2023-04-18T02:08:07.725Z,588.00
2023-04-18T02:09:07.792Z,589.00
2023-04-18T02:10:07.890Z,590.00
2023-04-18T02:11:07.954Z,591.00
2023-04-18T02:12:08.045Z,585.00
2023-04-18T02:13:08.101Z,587.00
2023-04-18T02:14:08.179Z,585.00
2023-04-18T02:15:08.433Z,585.00
2023-04-18T02:16:08.436Z,580.00
2023-04-18T02:17:08.408Z,585.00
2023-04-18T02:18:08.526Z,586.00
2023-04-18T02:19:08.586Z,583.00
2023-04-18T02:20:08.639Z,584.00
2023-04-18T02:21:08.696Z,583.00
2023-04-18T02:22:08.787Z,582.00
2023-04-18T02:23:08.906Z,581.00
2023-04-18T02:24:08.931Z,584.00
2023-04-18T02:25:08.998Z,578.00
2023-04-18T02:26:09.079Z,583.00
2023-04-18T02:27:09.155Z,584.00
2023-04-18T02:28:09.235Z,577.00
2023-04-18T02:29:09.306Z,581.00
2023-04-18T02:30:09.391Z,583.00
2023-04-18T02:31:09.933Z,581.00
2023-04-18T02:32:09.631Z,582.00
2023-04-18T02:33:09.602Z,579.00
2023-04-18T02:34:09.674Z,582.00
2023-04-18T02:35:09.751Z,574.00
2023-04-18T02:36:09.801Z,581.00
2023-04-18T02:37:09.879Z,579.00
2023-04-18T02:38:09.951Z,579.00
2023-04-18T02:39:10.025Z,580.00
2023-04-18T02:40:10.159Z,576.00
2023-04-18T02:41:10.174Z,581.00
2023-04-18T02:42:10.235Z,584.00
2023-04-18T02:43:10.315Z,576.00
2023-04-18T02:44:10.382Z,578.00
2023-04-18T02:45:10.456Z,582.00
2023-04-18T02:46:10.557Z,568.00
2023-04-18T02:47:10.604Z,573.00
2023-04-18T02:48:10.698Z,574.00
2023-04-18T02:49:10.818Z,578.00
2023-04-18T02:50:10.827Z,573.00
2023-04-18T02:51:10.884Z,576.00
2023-04-18T02:52:10.957Z,574.00
2023-04-18T02:53:11.029Z,574.00
2023-04-18T02:54:11.161Z,575.00
2023-04-18T02:55:11.174Z,573.00
2023-04-18T02:56:11.246Z,570.00
2023-04-18T02:57:11.316Z,571.00
2023-04-18T02:58:11.397Z,575.00
2023-04-18T02:59:12.436Z,571.00
2023-04-18T03:00:11.975Z,573.00
2023-04-18T03:01:11.667Z,573.00
2023-04-18T03:02:11.644Z,574.00
2023-04-18T03:03:11.748Z,573.00
2023-04-18T03:04:12.164Z,573.00
2023-04-18T03:05:11.945Z,575.00
2023-04-18T03:06:11.906Z,571.00
2023-04-18T03:07:12.065Z,571.00
2023-04-18T03:08:12.048Z,569.00
2023-04-18T03:09:12.104Z,571.00
2023-04-18T03:10:12.189Z,568.00
2023-04-18T03:11:12.252Z,572.00
2023-04-18T03:12:12.329Z,570.00
2023-04-18T03:13:12.388Z,573.00
2023-04-18T03:14:12.654Z,572.00
2023-04-18T03:15:12.522Z,565.00
2023-04-18T03:16:12.666Z,569.00
2023-04-18T03:17:12.638Z,567.00
2023-04-18T03:18:12.746Z,566.00
2023-04-18T03:19:12.797Z,571.00
2023-04-18T03:20:12.872Z,570.00
2023-04-18T03:21:12.901Z,566.00
2023-04-18T03:22:12.972Z,568.00
2023-04-18T03:23:13.050Z,566.00
2023-04-18T03:24:13.489Z,571.00
2023-04-18T03:25:13.171Z,566.00
2023-04-18T03:26:13.247Z,564.00
2023-04-18T03:27:13.290Z,570.00
2023-04-18T03:28:13.356Z,566.00
2023-04-18T03:29:13.457Z,568.00
2023-04-18T03:30:13.483Z,565.00
2023-04-18T03:31:13.590Z,565.00
2023-04-18T03:32:13.612Z,563.00
2023-04-18T03:33:13.685Z,562.00
2023-04-18T03:34:13.935Z,564.00
2023-04-18T03:35:13.841Z,567.00
2023-04-18T03:36:14.443Z,564.00
2023-04-18T03:37:13.963Z,565.00
2023-04-18T03:38:14.003Z,557.00
2023-04-18T03:39:14.077Z,563.00
2023-04-18T03:40:14.151Z,562.00
2023-04-18T03:41:14.400Z,565.00
2023-04-18T03:42:14.277Z,563.00
2023-04-18T03:43:14.344Z,561.00
2023-04-18T03:44:14.742Z,564.00
2023-04-18T03:45:14.478Z,564.00
2023-04-18T03:46:14.597Z,558.00
2023-04-18T03:47:14.637Z,562.00
2023-04-18T03:48:14.713Z,561.00
2023-04-18T03:49:14.776Z,563.00
2023-04-18T03:50:14.843Z,557.00
2023-04-18T03:51:14.976Z,557.00
2023-04-18T03:52:14.969Z,560.00
2023-04-18T03:53:15.059Z,555.00
2023-04-18T03:54:15.317Z,557.00
2023-04-18T03:55:15.178Z,558.00
2023-04-18T03:56:15.257Z,557.00
2023-04-18T03:57:15.323Z,558.00
2023-04-18T03:58:15.480Z,555.00
2023-04-18T03:59:15.601Z,554.00
2023-04-18T04:00:15.521Z,561.00
2023-04-18T04:01:15.657Z,554.00
2023-04-18T04:02:15.711Z,553.00
2023-04-18T04:03:15.769Z,554.00
2023-04-18T04:04:16.739Z,555.00
2023-04-18T04:05:15.931Z,554.00
2023-04-18T04:06:15.930Z,558.00
2023-04-18T04:07:16.004Z,552.00
2023-04-18T04:08:16.103Z,550.00
2023-04-18T04:09:16.123Z,551.00
2023-04-18T04:10:16.193Z,555.00
2023-04-18T04:11:16.260Z,549.00
2023-04-18T04:12:16.318Z,552.00
2023-04-18T04:13:16.393Z,548.00
2023-04-18T04:14:16.513Z,553.00
2023-04-18T04:15:16.539Z,545.00
2023-04-18T04:16:16.587Z,551.00
2023-04-18T04:17:16.651Z,553.00
2023-04-18T04:18:16.708Z,550.00
2023-04-18T04:19:16.769Z,547.00
2023-04-18T04:20:16.840Z,549.00
2023-04-18T04:21:17.597Z,546.00
2023-04-18T04:22:16.956Z,550.00
2023-04-18T04:23:17.083Z,551.00
2023-04-18T04:24:17.076Z,548.00
2023-04-18T04:25:17.136Z,550.00
2023-04-18T04:26:17.471Z,553.00
2023-04-18T04:27:17.260Z,550.00
2023-04-18T04:28:17.318Z,545.00
2023-04-18T04:29:17.374Z,549.00
2023-04-18T04:30:17.441Z,545.00
2023-04-18T04:31:17.532Z,548.00
2023-04-18T04:32:17.565Z,546.00
2023-04-18T04:33:17.644Z,541.00
2023-04-18T04:34:17.693Z,542.00
2023-04-18T04:35:17.758Z,551.00
2023-04-18T04:36:19.041Z,545.00
2023-04-18T04:37:17.862Z,545.00
2023-04-18T04:38:17.926Z,545.00
2023-04-18T04:39:17.989Z,545.00
2023-04-18T04:40:18.059Z,545.00
2023-04-18T04:41:18.133Z,543.00
2023-04-18T04:42:18.181Z,545.00
2023-04-18T04:43:18.238Z,544.00
2023-04-18T04:44:18.362Z,542.00
2023-04-18T04:45:18.385Z,544.00
2023-04-18T04:46:18.534Z,541.00
2023-04-18T04:47:18.498Z,547.00
2023-04-18T04:48:18.566Z,540.00
2023-04-18T04:49:18.632Z,543.00
2023-04-18T04:50:18.715Z,538.00
2023-04-18T04:51:18.766Z,538.00
2023-04-18T04:52:18.829Z,546.00
2023-04-18T04:53:18.889Z,542.00
2023-04-18T04:54:18.952Z,543.00
2023-04-18T04:55:19.084Z,541.00
2023-04-18T04:56:19.082Z,540.00
2023-04-18T04:57:19.154Z,535.00
2023-04-18T04:58:19.235Z,536.00
2023-04-18T04:59:19.284Z,541.00
2023-04-18T05:00:19.344Z,541.00
2023-04-18T05:01:19.483Z,538.00
2023-04-18T05:02:19.537Z,535.00
2023-04-18T05:03:19.695Z,538.00
2023-04-18T05:04:20.165Z,535.00
2023-04-18T05:05:19.657Z,536.00
2023-04-18T05:06:19.750Z,534.00
2023-04-18T05:07:19.789Z,532.00
2023-04-18T05:08:19.850Z,533.00
2023-04-18T05:09:19.920Z,536.00
2023-04-18T05:10:19.967Z,535.00
2023-04-18T05:11:20.049Z,528.00
2023-04-18T05:12:20.098Z,533.00
2023-04-18T05:13:20.174Z,536.00
2023-04-18T05:14:20.226Z,531.00
2023-04-18T05:15:20.284Z,532.00
2023-04-18T05:16:20.356Z,531.00
2023-04-18T05:17:20.394Z,532.00
2023-04-18T05:18:20.457Z,535.00
2023-04-18T05:19:20.519Z,535.00
2023-04-18T05:20:20.577Z,537.00
2023-04-18T05:21:20.631Z,536.00
2023-04-18T05:22:20.680Z,533.00
2023-04-18T05:23:20.766Z,537.00
2023-04-18T05:24:20.814Z,543.00
2023-04-18T05:25:20.867Z,551.00
2023-04-18T05:26:20.944Z,563.00
2023-04-18T05:27:20.971Z,573.00
2023-04-18T05:28:21.000Z,583.00
2023-04-18T05:29:21.033Z,598.00
2023-04-18T05:30:21.103Z,611.00
2023-04-18T05:31:22.031Z,620.00
2023-04-18T05:32:21.171Z,633.00
2023-04-18T05:33:21.133Z,648.00
2023-04-18T05:34:21.150Z,715.00
2023-04-18T05:35:21.188Z,792.00
2023-04-18T05:36:21.190Z,866.00
2023-04-18T05:37:21.206Z,893.00
2023-04-18T05:38:21.220Z,943.00
2023-04-18T05:39:21.220Z,987.00
2023-04-18T05:40:21.249Z,1013.00
2023-04-18T05:41:21.248Z,1039.00
2023-04-18T05:42:21.273Z,1077.00
2023-04-18T05:43:21.274Z,1104.00
2023-04-18T05:44:21.567Z,1135.00
2023-04-18T05:45:21.307Z,1146.00
2023-04-18T05:46:21.360Z,1180.00
2023-04-18T05:47:21.370Z,1204.00
2023-04-18T05:48:21.364Z,1244.00
2023-04-18T05:49:21.368Z,1265.00
2023-04-18T05:50:21.499Z,1301.00
2023-04-18T05:51:21.476Z,1315.00
2023-04-18T05:52:21.521Z,1339.00
2023-04-18T05:53:22.498Z,1377.00
2023-04-18T05:54:21.653Z,1366.00
2023-04-18T05:55:21.772Z,1430.00
2023-04-18T05:56:21.778Z,1456.00
2023-04-18T05:57:21.847Z,1473.00
2023-04-18T05:58:21.933Z,1491.00
2023-04-18T05:59:21.964Z,1512.00
2023-04-18T06:00:22.048Z,1545.00
2023-04-18T06:01:22.091Z,1582.00
2023-04-18T06:02:22.273Z,1618.00
2023-04-18T06:03:22.435Z,1638.00
2023-04-18T06:04:22.395Z,1677.00
2023-04-18T06:05:22.817Z,1705.00
2023-04-18T06:06:22.403Z,1728.00
2023-04-18T06:07:22.523Z,1767.00
2023-04-18T06:08:22.524Z,1773.00
2023-04-18T06:09:22.584Z,1812.00
2023-04-18T06:10:22.649Z,1848.00
2023-04-18T06:11:22.728Z,1867.00
2023-04-18T06:12:22.750Z,1898.00
2023-04-18T06:13:22.778Z,1941.00
2023-04-18T06:14:23.509Z,1954.00
2023-04-18T06:15:22.868Z,1979.00
2023-04-18T06:16:22.924Z,1997.00
2023-04-18T06:17:23.010Z,2032.00
2023-04-18T06:18:22.991Z,2052.00
2023-04-18T06:19:23.013Z,2071.00
2023-04-18T06:20:23.049Z,2071.00
2023-04-18T06:21:24.008Z,2074.00
2023-04-18T06:22:23.120Z,2076.00
2023-04-18T06:23:23.162Z,2085.00
2023-04-18T06:24:23.192Z,2072.00
2023-04-18T06:25:23.231Z,2085.00
2023-04-18T06:26:23.275Z,2074.00
2023-04-18T06:27:31.044Z,2073.00
2023-04-18T06:28:24.314Z,2074.00
2023-04-18T06:29:23.316Z,2076.00
2023-04-18T06:30:23.353Z,2075.00
2023-04-18T06:31:23.353Z,2077.00
2023-04-18T06:32:25.498Z,2072.00
2023-04-18T06:33:23.941Z,2079.00
2023-04-18T06:34:23.298Z,2082.00
2023-04-18T06:35:24.138Z,2063.00
2023-04-18T06:36:23.507Z,2054.00
2023-04-18T06:37:23.589Z,2059.00
2023-04-18T06:38:24.017Z,2057.00
2023-04-18T06:39:23.722Z,2041.00
2023-04-18T06:40:23.728Z,2045.00
2023-04-18T06:41:23.789Z,2036.00
2023-04-18T06:42:23.866Z,2018.00
2023-04-18T06:43:23.909Z,2033.00
2023-04-18T06:44:23.973Z,2028.00
2023-04-18T06:45:24.043Z,2020.00
2023-04-18T06:46:24.153Z,2007.00
2023-04-18T06:47:25.162Z,2008.00
2023-04-18T06:48:24.093Z,1999.00
2023-04-18T06:49:26.415Z,2005.00
2023-04-18T06:50:24.330Z,2006.00
2023-04-18T06:51:24.385Z,2007.00
2023-04-18T06:52:24.438Z,1992.00
2023-04-18T06:53:24.512Z,1972.00
2023-04-18T06:54:24.596Z,1977.00
2023-04-18T06:55:24.742Z,1962.00
2023-04-18T06:56:24.705Z,1944.00
2023-04-18T06:57:24.769Z,1959.00
2023-04-18T06:58:24.836Z,1953.00
2023-04-18T06:59:24.911Z,1939.00
2023-04-18T07:00:24.974Z,1923.00
2023-04-18T07:01:25.071Z,1920.00
2023-04-18T07:02:25.179Z,1921.00
2023-04-18T07:03:25.261Z,1910.00
2023-04-18T07:04:25.403Z,1905.00
2023-04-18T07:05:25.269Z,1893.00
2023-04-18T07:06:25.319Z,1890.00
2023-04-18T07:07:25.362Z,1889.00
2023-04-18T07:08:25.443Z,1875.00
2023-04-18T07:09:25.487Z,1882.00
2023-04-18T07:10:26.628Z,1860.00
2023-04-18T07:11:25.603Z,1849.00
2023-04-18T07:12:25.623Z,1847.00
2023-04-18T07:13:25.732Z,1861.00
2023-04-18T07:14:25.730Z,1843.00
2023-04-18T07:15:25.777Z,1848.00
2023-04-18T07:16:25.884Z,1844.00
2023-04-18T07:17:25.959Z,1841.00
2023-04-18T07:18:36.719Z,1836.00
2023-04-18T07:19:27.054Z,1837.00
2023-04-18T07:20:26.060Z,1840.00
2023-04-18T07:21:26.448Z,1854.00
2023-04-18T07:22:25.958Z,1859.00
2023-04-18T07:23:25.963Z,1890.00
2023-04-18T07:24:25.963Z,1899.00
2023-04-18T07:25:25.963Z,1902.00
2023-04-18T07:26:26.602Z,1915.00
2023-04-18T07:27:25.977Z,1921.00
2023-04-18T07:28:26.948Z,1940.00
2023-04-18T07:29:27.455Z,1952.00
2023-04-18T07:30:26.097Z,1986.00
2023-04-18T07:31:26.149Z,1995.00
2023-04-18T07:32:26.235Z,1997.00
2023-04-18T07:33:26.273Z,2013.00
2023-04-18T07:34:26.308Z,2014.00
2023-04-18T07:35:26.250Z,2021.00
2023-04-18T07:36:26.302Z,2034.00
2023-04-18T07:37:26.202Z,2061.00
2023-04-18T07:38:26.208Z,2114.00
2023-04-18T07:39:26.194Z,2139.00
2023-04-18T07:40:26.229Z,2149.00
2023-04-18T07:41:26.245Z,2165.00
2023-04-18T07:42:26.271Z,2177.00
2023-04-18T07:43:26.168Z,2213.00
2023-04-18T07:44:26.161Z,2218.00
2023-04-18T07:45:26.163Z,2245.00
2023-04-18T07:46:26.210Z,2234.00
2023-04-18T07:47:27.518Z,2220.00
2023-04-18T07:48:26.174Z,2246.00
2023-04-18T07:49:26.133Z,2262.00
2023-04-18T07:50:26.141Z,2283.00
2023-04-18T07:51:26.119Z,2293.00
2023-04-18T07:52:26.122Z,2319.00
2023-04-18T07:53:26.108Z,2352.00
2023-04-18T07:54:26.101Z,2359.00
2023-04-18T07:55:26.155Z,2353.00
2023-04-18T07:56:26.097Z,2392.00
2023-04-18T07:57:26.108Z,2407.00
2023-04-18T07:58:26.217Z,2423.00
2023-04-18T07:59:26.091Z,2440.00
2023-04-18T08:00:26.296Z,2429.00
2023-04-18T08:01:26.070Z,2457.00
2023-04-18T08:02:26.246Z,2485.00
2023-04-18T08:03:26.229Z,2488.00
2023-04-18T08:05:26.136Z,2510.00
2023-04-18T08:06:26.973Z,2526.00
2023-04-18T08:07:26.001Z,2551.00
2023-04-18T08:08:26.078Z,2560.00
2023-04-18T08:09:26.001Z,2592.00
2023-04-18T08:10:25.981Z,2584.00
2023-04-18T08:11:25.986Z,2619.00
2023-04-18T08:12:26.032Z,2618.00
2023-04-18T08:13:25.951Z,2631.00
2023-04-18T08:14:25.964Z,2642.00
2023-04-18T08:15:25.901Z,2664.00
2023-04-18T08:16:25.896Z,2656.00
2023-04-18T08:17:25.899Z,2639.00
2023-04-18T08:18:25.857Z,2649.00
2023-04-18T08:19:25.849Z,2525.00
2023-04-18T08:20:25.882Z,1991.00
2023-04-18T08:21:25.827Z,1616.00
2023-04-18T08:22:25.805Z,1479.00
2023-04-18T08:23:25.801Z,1389.00
2023-04-18T08:24:25.796Z,1434.00
2023-04-18T08:25:25.802Z,1415.00
2023-04-18T08:26:25.882Z,1381.00
2023-04-18T08:27:25.769Z,1348.00
2023-04-18T08:28:26.585Z,1345.00
2023-04-18T08:29:25.739Z,1338.00
2023-04-18T08:30:26.691Z,1353.00
2023-04-18T08:31:25.770Z,1388.00
2023-04-18T08:32:25.781Z,1408.00
2023-04-18T08:33:25.694Z,1440.00
2023-04-18T08:34:25.684Z,1480.00
2023-04-18T08:35:25.673Z,1495.00
2023-04-18T08:36:25.660Z,1472.00
2023-04-18T08:37:25.683Z,1508.00
2023-04-18T08:38:25.641Z,1517.00
2023-04-18T08:39:26.057Z,1541.00
2023-04-18T08:40:25.654Z,1558.00
2023-04-18T08:41:25.604Z,1599.00
2023-04-18T08:42:25.596Z,1613.00
2023-04-18T08:43:25.575Z,1637.00
2023-04-18T08:44:25.558Z,1652.00
2023-04-18T08:45:25.555Z,1663.00
2023-04-18T08:46:25.577Z,1690.00
2023-04-18T08:47:25.551Z,1739.00
2023-04-18T08:48:25.499Z,1760.00
2023-04-18T08:49:25.562Z,1795.00
2023-04-18T08:50:25.501Z,1799.00
2023-04-18T08:51:25.457Z,1840.00
2023-04-18T08:52:25.429Z,1838.00
2023-04-18T08:53:25.414Z,1853.00
2023-04-18T08:54:27.140Z,1875.00
2023-04-18T08:55:25.389Z,1896.00
2023-04-18T08:56:25.355Z,1909.00
2023-04-18T08:57:25.339Z,1943.00
2023-04-18T08:58:25.322Z,1965.00
2023-04-18T08:59:25.315Z,1972.00
2023-04-18T09:00:25.423Z,1956.00
2023-04-18T09:01:25.376Z,1983.00
2023-04-18T09:02:25.564Z,1971.00
2023-04-18T09:03:25.361Z,1989.00
2023-04-18T09:04:25.378Z,1998.00
2023-04-18T09:05:25.309Z,2023.00
2023-04-18T09:06:26.081Z,2030.00
2023-04-18T09:07:25.326Z,2041.00
2023-04-18T09:08:25.277Z,2041.00
2023-04-18T09:09:25.276Z,2082.00
2023-04-18T09:10:25.315Z,2091.00
2023-04-18T09:11:25.268Z,2113.00
2023-04-18T09:12:25.269Z,2138.00
2023-04-18T09:13:25.261Z,2153.00
2023-04-18T09:14:25.288Z,2203.00
2023-04-18T09:15:25.315Z,2232.00
2023-04-18T09:16:25.429Z,2244.00
2023-04-18T09:17:25.395Z,2197.00
2023-04-18T09:18:25.647Z,1982.00
2023-04-18T09:19:25.401Z,1387.00
2023-04-18T09:20:25.460Z,945.00
2023-04-18T09:21:25.540Z,645.00
2023-04-18T09:22:25.589Z,763.00
2023-04-18T09:23:25.628Z,803.00
2023-04-18T09:24:25.654Z,812.00
2023-04-18T09:25:26.491Z,809.00
2023-04-18T09:26:25.752Z,793.00
2023-04-18T09:27:25.804Z,818.00
2023-04-18T09:28:26.094Z,823.00
2023-04-18T09:29:25.926Z,852.00
2023-04-18T09:30:25.983Z,868.00
2023-04-18T09:31:26.121Z,913.00
2023-04-18T09:32:26.148Z,936.00
2023-04-18T09:33:26.162Z,973.00
2023-04-18T09:34:26.255Z,991.00
2023-04-18T09:35:26.268Z,1017.00
2023-04-18T09:36:26.348Z,1053.00
2023-04-18T09:37:26.368Z,1079.00
2023-04-18T09:38:26.603Z,1118.00
2023-04-18T09:39:26.470Z,1146.00
2023-04-18T09:40:26.515Z,1183.00
2023-04-18T09:41:26.536Z,1200.00
2023-04-18T09:42:28.795Z,1235.00
2023-04-18T09:43:26.630Z,1263.00
2023-04-18T09:44:26.667Z,1281.00
2023-04-18T09:45:26.710Z,1318.00
2023-04-18T09:46:26.749Z,1352.00
2023-04-18T09:47:26.801Z,1384.00
2023-04-18T09:48:26.790Z,1403.00
2023-04-18T09:49:26.839Z,1418.00
2023-04-18T09:50:26.872Z,1438.00
2023-04-18T09:51:26.912Z,1463.00
2023-04-18T09:52:27.593Z,1486.00
2023-04-18T09:53:26.978Z,1524.00
2023-04-18T09:54:27.000Z,1528.00
2023-04-18T09:55:27.031Z,1561.00
2023-04-18T09:56:27.049Z,1592.00
2023-04-18T09:57:28.093Z,1624.00
2023-04-18T09:58:27.123Z,1652.00
2023-04-18T09:59:27.153Z,1671.00
2023-04-18T10:00:27.184Z,1675.00
2023-04-18T10:01:28.192Z,1677.00
2023-04-18T10:02:27.241Z,1685.00
2023-04-18T10:03:27.219Z,1703.00
2023-04-18T10:04:27.221Z,1733.00
2023-04-18T10:05:27.214Z,1796.00
2023-04-18T10:06:27.099Z,1810.00
2023-04-18T10:07:27.096Z,1814.00
2023-04-18T10:08:27.085Z,1805.00
2023-04-18T10:09:27.067Z,1820.00
2023-04-18T10:10:27.086Z,1837.00
2023-04-18T10:11:27.048Z,1885.00
2023-04-18T10:12:27.045Z,1878.00
2023-04-18T10:13:27.012Z,1890.00
2023-04-18T10:14:28.448Z,1908.00
2023-04-18T10:15:27.166Z,1772.00
2023-04-18T10:16:27.026Z,1448.00
2023-04-18T10:17:28.749Z,1284.00
2023-04-18T10:18:27.040Z,1229.00
2023-04-18T10:19:28.009Z,1220.00
2023-04-18T10:20:26.960Z,1005.00
2023-04-18T10:21:27.594Z,973.00
2023-04-18T10:22:27.509Z,875.00
2023-04-18T10:23:28.071Z,822.00
2023-04-18T10:24:26.918Z,840.00
2023-04-18T10:25:26.909Z,816.00
2023-04-18T10:26:26.900Z,805.00
2023-04-18T10:27:26.883Z,736.00
2023-04-18T10:28:26.864Z,686.00
2023-04-18T10:29:26.850Z,660.00
2023-04-18T10:30:26.849Z,624.00
2023-04-18T10:31:27.026Z,618.00
2023-04-18T10:32:26.931Z,592.00
2023-04-18T10:33:31.129Z,573.00
2023-04-18T10:34:28.003Z,569.00
2023-04-18T10:35:26.979Z,547.00
2023-04-18T10:36:26.885Z,527.00
2023-04-18T10:37:26.870Z,507.00
2023-04-18T10:38:26.856Z,506.00
2023-04-18T10:39:26.892Z,508.00
2023-04-18T10:40:26.811Z,518.00
2023-04-18T10:41:26.825Z,543.00
2023-04-18T10:42:26.770Z,548.00
2023-04-18T10:43:26.828Z,562.00
2023-04-18T10:44:26.796Z,580.00
2023-04-18T10:45:26.821Z,598.00
2023-04-18T10:46:31.624Z,614.00
2023-04-18T10:47:27.913Z,617.00
2023-04-18T10:48:26.814Z,628.00
2023-04-18T10:49:28.416Z,648.00
2023-04-18T10:50:26.788Z,700.00
2023-04-18T10:51:26.775Z,806.00
2023-04-18T10:52:26.764Z,841.00
2023-04-18T10:53:26.763Z,853.00
2023-04-18T10:54:26.766Z,876.00
2023-04-18T10:55:27.110Z,916.00
2023-04-18T10:56:27.103Z,932.00
2023-04-18T10:57:26.695Z,954.00
2023-04-18T10:58:26.684Z,982.00
2023-04-18T10:59:26.692Z,998.00
2023-04-18T11:00:26.681Z,1025.00
2023-04-18T11:01:27.481Z,1047.00
2023-04-18T11:02:26.895Z,1051.00
2023-04-18T11:03:26.925Z,1062.00
2023-04-18T11:04:26.925Z,1084.00
2023-04-18T11:05:26.856Z,1120.00
2023-04-18T11:06:26.856Z,1171.00
2023-04-18T11:07:28.405Z,1173.00
2023-04-18T11:08:26.836Z,1192.00
2023-04-18T11:09:26.828Z,1185.00
2023-04-18T11:10:26.942Z,1194.00
2023-04-18T11:11:26.783Z,1197.00
2023-04-18T11:12:26.760Z,1203.00
2023-04-18T11:13:26.732Z,1193.00
2023-04-18T11:14:26.717Z,1187.00
2023-04-18T11:15:28.015Z,1188.00
2023-04-18T11:16:26.761Z,1188.00
2023-04-18T11:17:27.634Z,1192.00
2023-04-18T11:18:26.784Z,1193.00
2023-04-18T11:19:26.800Z,1205.00
2023-04-18T11:20:26.921Z,1213.00
2023-04-18T11:21:28.074Z,1217.00
2023-04-18T11:22:26.899Z,1194.00
2023-04-18T11:23:26.997Z,1204.00
2023-04-18T11:24:26.964Z,1211.00
2023-04-18T11:25:27.048Z,1209.00
2023-04-18T11:26:27.166Z,1212.00
2023-04-18T11:27:27.069Z,1218.00
2023-04-18T11:28:27.104Z,1206.00
2023-04-18T11:29:27.616Z,1206.00
2023-04-18T11:30:27.198Z,1218.00
2023-04-18T11:31:27.244Z,1210.00
2023-04-18T11:32:27.811Z,1213.00
2023-04-18T11:33:27.311Z,1221.00
2023-04-18T11:34:27.357Z,1206.00
2023-04-18T11:35:27.391Z,1206.00
2023-04-18T11:36:27.436Z,1224.00
2023-04-18T11:37:27.493Z,1214.00
2023-04-18T11:38:27.516Z,1210.00
2023-04-18T11:39:27.576Z,1210.00
2023-04-18T11:40:27.617Z,1193.00
2023-04-18T11:41:27.666Z,1207.00
2023-04-18T11:42:27.731Z,1204.00
2023-04-18T11:43:27.745Z,1203.00
2023-04-18T11:44:27.794Z,1202.00
2023-04-18T11:45:27.833Z,1207.00
2023-04-18T11:46:27.937Z,1201.00
2023-04-18T11:47:27.945Z,1197.00
2023-04-18T11:48:27.971Z,1204.00
2023-04-18T11:49:28.088Z,1196.00
2023-04-18T11:50:28.134Z,1197.00
2023-04-18T11:51:28.104Z,1199.00
2023-04-18T11:52:28.170Z,1190.00
2023-04-18T11:53:28.203Z,1189.00
2023-04-18T11:54:28.325Z,1194.00
2023-04-18T11:55:28.313Z,1202.00
2023-04-18T11:56:28.328Z,1186.00
2023-04-18T11:57:28.371Z,1191.00
2023-04-18T11:58:28.441Z,1194.00
2023-04-18T11:59:28.444Z,1197.00
2023-04-18T12:00:28.492Z,1179.00
2023-04-18T12:01:28.527Z,1172.00
2023-04-18T12:02:28.662Z,1171.00
2023-04-18T12:03:28.710Z,1174.00
2023-04-18T12:04:28.937Z,1156.00
2023-04-18T12:05:28.927Z,1177.00
2023-04-18T12:06:28.760Z,1159.00
2023-04-18T12:07:29.130Z,1159.00
2023-04-18T12:08:28.753Z,1153.00
2023-04-18T12:09:28.775Z,1154.00
2023-04-18T12:10:28.809Z,1143.00
2023-04-18T12:11:28.821Z,1151.00
2023-04-18T12:12:28.841Z,1140.00
2023-04-18T12:13:28.866Z,1137.00
2023-04-18T12:14:28.912Z,1139.00
2023-04-18T12:15:28.871Z,1134.00
2023-04-18T12:16:28.943Z,1132.00
2023-04-18T12:17:28.920Z,1129.00
2023-04-18T12:18:28.908Z,1121.00
2023-04-18T12:19:28.946Z,1128.00